createdAt,value
2019-04-01T03:56:31.927Z,102125.72
2019-04-01T03:59:03.214Z,102123.84
2019-04-01T04:01:35.392Z,102126.71
2019-04-01T04:04:05.919Z,102129.18
2019-04-01T04:06:36.506Z,102134.02
2019-04-01T04:09:07.082Z,102127.31
2019-04-01T04:11:37.760Z,102133.09
2019-04-01T04:14:08.451Z,102129.10
2019-04-01T04:16:39.087Z,102131.94
2019-04-01T04:19:09.719Z,102128.72
2019-04-01T04:21:40.451Z,102128.84
2019-04-01T04:24:11.088Z,102139.59
2019-04-01T04:26:41.621Z,102137.25
2019-04-01T04:29:12.153Z,102136.77
2019-04-01T04:31:42.781Z,102136.05
2019-04-01T04:34:13.519Z,102142.48
2019-04-01T04:36:44.147Z,102144.16
2019-04-01T04:39:14.681Z,102146.91
2019-04-01T04:41:45.342Z,102147.81
2019-04-01T04:44:15.889Z,102150.59
2019-04-01T04:46:46.371Z,102147.47
2019-04-01T04:49:17.011Z,102147.72
2019-04-01T04:51:47.589Z,102160.90
2019-04-01T04:54:18.270Z,102156.64
2019-04-01T04:56:48.802Z,102151.03
2019-04-01T04:59:19.447Z,102156.05
2019-04-01T05:01:50.170Z,102161.38
2019-04-01T05:04:20.909Z,102167.59
2019-04-01T05:06:51.393Z,102167.69
2019-04-01T05:09:21.993Z,102165.31
2019-04-01T05:11:52.730Z,102171.00
2019-04-01T05:14:23.192Z,102173.86
2019-04-01T05:16:53.780Z,102177.89
2019-04-01T05:19:24.262Z,102182.27
2019-04-01T05:21:55.038Z,102187.34
2019-04-01T05:24:25.527Z,102185.47
2019-04-01T05:26:57.184Z,102190.38
2019-04-01T05:29:27.761Z,102191.03
2019-04-01T05:31:58.386Z,102184.22
2019-04-01T05:34:29.432Z,102188.56
2019-04-01T05:36:59.960Z,102184.25
2019-04-01T05:39:30.598Z,102189.04
2019-04-01T05:42:01.235Z,102186.77
2019-04-01T05:44:32.881Z,102187.19
2019-04-01T05:47:03.469Z,102196.46
2019-04-01T05:49:34.054Z,102182.00
2019-04-01T05:52:04.590Z,102196.51
2019-04-01T05:54:35.177Z,102196.81
2019-04-01T05:57:05.846Z,102194.52
2019-04-01T05:59:36.486Z,102194.97
2019-04-01T06:02:07.135Z,102195.23
2019-04-01T06:04:37.855Z,102190.22
2019-04-01T06:07:08.487Z,102200.77
2019-04-01T06:09:39.084Z,102205.58
2019-04-01T06:12:09.591Z,102209.63
2019-04-01T06:14:41.149Z,102219.67
2019-04-01T06:17:11.641Z,102221.78
2019-04-01T06:19:42.159Z,102225.70
2019-04-01T06:22:12.900Z,102225.50
2019-04-01T06:24:43.530Z,102227.07
2019-04-01T06:27:15.599Z,102225.03
2019-04-01T06:29:46.541Z,102231.41
2019-04-01T06:32:17.076Z,102228.33
2019-04-01T06:34:52.917Z,102229.40
2019-04-01T06:37:19.774Z,102239.31
2019-04-01T06:39:50.303Z,102233.64
2019-04-01T06:42:21.820Z,102240.95
2019-04-01T06:44:52.414Z,102241.06
2019-04-01T06:47:22.916Z,102244.92
2019-04-01T06:49:53.446Z,102241.34
2019-04-01T06:52:24.050Z,102247.08
2019-04-01T06:54:54.575Z,102254.50
2019-04-01T06:57:25.107Z,102252.83
2019-04-01T06:59:55.679Z,102246.41
2019-04-01T07:02:26.214Z,102253.36
2019-04-01T07:04:56.742Z,102249.66
2019-04-01T07:07:27.709Z,102256.13
2019-04-01T07:09:58.214Z,102254.22
2019-04-01T07:12:28.842Z,102252.62
2019-04-01T07:14:59.398Z,102257.11
2019-04-01T07:17:30.116Z,102257.83
2019-04-01T07:20:00.848Z,102258.18
2019-04-01T07:22:31.819Z,102262.32
2019-04-01T07:25:02.528Z,102256.73
2019-04-01T07:27:33.279Z,102265.02
2019-04-01T07:30:04.820Z,102259.98
2019-04-01T07:32:35.393Z,102264.78
2019-04-01T07:35:06.188Z,102262.44
2019-04-01T07:37:38.253Z,102258.67
2019-04-01T07:40:08.827Z,102268.70
2019-04-01T07:42:39.510Z,102264.37
2019-04-01T07:45:10.039Z,102265.67
2019-04-01T07:47:40.740Z,102277.02
2019-04-01T07:50:12.428Z,102271.13
2019-04-01T07:52:43.173Z,102269.01
2019-04-01T07:55:13.814Z,102272.32
2019-04-01T07:57:44.342Z,102276.03
2019-04-01T08:00:14.874Z,102280.01
2019-04-01T08:02:48.857Z,102288.02
2019-04-01T08:05:17.879Z,102281.48
2019-04-01T08:07:48.508Z,102280.28
2019-04-01T08:10:20.211Z,102281.70
2019-04-01T08:12:50.701Z,102283.25
2019-04-01T08:15:22.926Z,102285.79
2019-04-01T08:17:53.685Z,102290.73
2019-04-01T08:20:25.648Z,102285.77
2019-04-01T08:22:56.290Z,102281.21
2019-04-01T08:25:26.818Z,102290.22
2019-04-01T08:27:57.378Z,102289.06
2019-04-01T08:30:28.072Z,102286.58
2019-04-01T08:32:58.743Z,102287.28
2019-04-01T08:35:29.252Z,102281.27
2019-04-01T08:37:59.905Z,102291.60
2019-04-01T08:40:30.505Z,102281.67
2019-04-01T08:43:01.147Z,102279.53
2019-04-01T08:45:36.815Z,102287.34
2019-04-01T08:48:07.367Z,102284.42
2019-04-01T08:50:38.186Z,102292.00
2019-04-01T08:53:08.627Z,102287.98
2019-04-01T08:55:39.149Z,102284.65
2019-04-01T08:58:09.610Z,102298.13
2019-04-01T09:00:40.897Z,102287.73
2019-04-01T09:03:11.542Z,102294.55
2019-04-01T09:05:42.103Z,102290.69
2019-04-01T09:08:12.719Z,102293.83
2019-04-01T09:10:43.235Z,102288.63
2019-04-01T09:13:13.786Z,102294.84
2019-04-01T09:15:44.396Z,102288.28
2019-04-01T09:18:14.925Z,102295.30
2019-04-01T09:20:45.463Z,102280.70
2019-04-01T09:23:15.930Z,102282.69
2019-04-01T09:25:46.493Z,102282.72
2019-04-01T09:28:16.960Z,102287.77
2019-04-01T09:30:47.501Z,102273.34
2019-04-01T09:33:18.070Z,102281.25
2019-04-01T09:35:48.644Z,102280.50
2019-04-01T09:38:19.280Z,102284.36
2019-04-01T09:40:49.927Z,102283.41
2019-04-01T09:43:20.440Z,102287.53
2019-04-01T09:45:50.972Z,102283.47
2019-04-01T09:48:23.670Z,102274.84
2019-04-01T09:50:53.876Z,102279.67
2019-04-01T09:53:24.506Z,102279.31
2019-04-01T09:55:55.070Z,102274.50
2019-04-01T09:58:25.685Z,102271.30
2019-04-01T10:00:56.210Z,102276.95
2019-04-01T10:03:26.675Z,102271.84
2019-04-01T10:05:57.438Z,102273.86
2019-04-01T10:08:41.538Z,102270.27
2019-04-01T10:11:00.517Z,102270.30
2019-04-01T10:13:31.221Z,102265.53
2019-04-01T10:16:01.850Z,102276.77
2019-04-01T10:18:32.383Z,102268.45
2019-04-01T10:21:02.919Z,102265.64
2019-04-01T10:23:33.394Z,102270.60
2019-04-01T10:26:03.979Z,102265.56
2019-04-01T10:28:34.509Z,102266.27
2019-04-01T10:31:05.137Z,102245.12
2019-04-01T10:33:35.673Z,102247.36
2019-04-01T10:36:06.298Z,102252.90
2019-04-01T10:38:37.243Z,102238.45
2019-04-01T10:41:07.779Z,102247.92
2019-04-01T10:43:38.716Z,102244.56
2019-04-01T10:46:12.337Z,102247.48
2019-04-01T10:48:43.225Z,102231.94
2019-04-01T10:51:15.019Z,102238.16
2019-04-01T10:53:45.675Z,102235.16
2019-04-01T10:56:16.223Z,102234.93
2019-04-01T10:58:47.029Z,102236.91
2019-04-01T11:01:17.656Z,102242.31
2019-04-01T11:03:48.270Z,102234.78
2019-04-01T11:06:18.740Z,102238.27
2019-04-01T11:08:49.457Z,102232.16
2019-04-01T11:11:20.092Z,102230.69
2019-04-01T11:14:08.435Z,102230.88
2019-04-01T11:16:56.782Z,102230.47
2019-04-01T11:19:27.317Z,102224.92
2019-04-01T11:21:59.076Z,102223.53
2019-04-01T11:24:29.560Z,102223.04
2019-04-01T11:27:00.041Z,102220.19
2019-04-01T11:29:30.725Z,102223.55
2019-04-01T11:32:02.361Z,102209.03
2019-04-01T11:34:32.912Z,102206.38
2019-04-01T11:37:03.448Z,102213.95
2019-04-01T11:39:36.167Z,102211.55
2019-04-01T11:42:07.011Z,102218.72
2019-04-01T11:44:37.749Z,102211.88
2019-04-01T11:47:08.285Z,102205.50
2019-04-01T11:49:38.811Z,102194.88
2019-04-01T11:52:09.374Z,102201.06
2019-04-01T11:54:40.068Z,102190.89
2019-04-01T11:57:11.104Z,102206.75
2019-04-01T11:59:41.951Z,102187.83
2019-04-01T12:02:12.697Z,102181.72
2019-04-01T12:04:43.182Z,102177.86
2019-04-01T12:07:13.758Z,102188.44
2019-04-01T12:09:44.287Z,102187.42
2019-04-01T12:12:23.674Z,102181.31
2019-04-01T12:14:47.083Z,102178.38
2019-04-01T12:17:17.723Z,102178.08
2019-04-01T12:19:48.214Z,102172.90
2019-04-01T12:22:19.912Z,102167.31
2019-04-01T12:24:51.006Z,102169.70
2019-04-01T12:27:22.612Z,102162.39
2019-04-01T12:29:53.180Z,102163.00
2019-04-01T12:32:23.730Z,102157.96
2019-04-01T12:34:54.199Z,102156.98
2019-04-01T12:37:24.744Z,102160.77
2019-04-01T12:39:55.219Z,102151.20
2019-04-01T12:42:25.765Z,102160.34
2019-04-01T12:44:56.326Z,102152.80
2019-04-01T12:47:26.816Z,102146.34
2019-04-01T12:49:57.417Z,102142.16
2019-04-01T12:52:27.892Z,102141.69
2019-04-01T12:55:00.872Z,102143.57
2019-04-01T12:57:31.851Z,102135.72
2019-04-01T13:00:02.475Z,102126.87
2019-04-01T13:02:36.398Z,102120.90
2019-04-01T13:05:07.958Z,102123.43
2019-04-01T13:07:38.481Z,102118.98
2019-04-01T13:10:09.436Z,102125.31
2019-04-01T13:12:39.954Z,102132.95
2019-04-01T13:15:10.481Z,102127.95
2019-04-01T13:17:40.966Z,102118.38
2019-04-01T13:20:13.902Z,102114.67
2019-04-01T13:22:44.629Z,102109.34
2019-04-01T13:25:15.101Z,102109.85
2019-04-01T13:27:45.802Z,102101.16
2019-04-01T13:30:16.275Z,102099.44
2019-04-01T13:32:46.778Z,102101.66
2019-04-01T13:35:17.258Z,102103.39
2019-04-01T13:37:47.840Z,102103.63
2019-04-01T13:40:19.594Z,102084.49
2019-04-01T13:42:50.489Z,102096.32
2019-04-01T13:45:21.551Z,102090.30
2019-04-01T13:47:52.394Z,102086.55
2019-04-01T13:50:22.924Z,102080.31
2019-04-01T13:52:53.475Z,102084.37
2019-04-01T13:55:24.084Z,102077.02
2019-04-01T13:57:54.636Z,102072.19
2019-04-01T14:00:27.399Z,102069.17
2019-04-01T14:02:57.555Z,102070.82
2019-04-01T14:05:28.042Z,102068.65
2019-04-01T14:07:58.616Z,102063.62
2019-04-01T14:10:29.126Z,102056.73
2019-04-01T14:12:59.758Z,102055.59
2019-04-01T14:15:30.900Z,102066.20
2019-04-01T14:18:01.531Z,102055.56
2019-04-01T14:20:32.012Z,102047.15
2019-04-01T14:23:03.625Z,102049.69
2019-04-01T14:25:34.995Z,102045.80
2019-04-01T14:28:05.705Z,102046.08
2019-04-01T14:30:36.709Z,102040.70
2019-04-01T14:33:07.202Z,102028.24
2019-04-01T14:35:37.813Z,102030.27
2019-04-01T14:38:08.297Z,102024.59
2019-04-01T14:40:38.886Z,102025.22
2019-04-01T14:43:09.984Z,102024.48
2019-04-01T14:45:40.960Z,102025.92
2019-04-01T14:48:11.428Z,102014.56
2019-04-01T14:50:42.051Z,102017.51
2019-04-01T14:53:13.683Z,102022.63
2019-04-01T14:55:44.314Z,102011.48
2019-04-01T14:58:14.787Z,102010.05
2019-04-01T15:00:45.269Z,102014.81
2019-04-01T15:03:15.750Z,102010.60
2019-04-01T15:05:46.232Z,102001.05
2019-04-01T15:08:19.429Z,102004.72
2019-04-01T15:10:48.958Z,102005.48
2019-04-01T15:13:20.499Z,101986.12
2019-04-01T15:15:51.120Z,101983.25
2019-04-01T15:18:21.707Z,101988.92
2019-04-01T15:20:52.255Z,101984.27
2019-04-01T15:23:25.021Z,101982.83
2019-04-01T15:25:55.081Z,101975.11
2019-04-01T15:28:25.613Z,101982.79
2019-04-01T15:30:56.553Z,101973.23
2019-04-01T15:33:28.016Z,101964.79
2019-04-01T15:35:58.561Z,101965.39
2019-04-01T15:38:29.272Z,101959.80
2019-04-01T15:41:01.350Z,101971.15
2019-04-01T15:43:31.985Z,101960.57
2019-04-01T15:46:04.152Z,101959.13
2019-04-01T15:48:34.893Z,101964.36
2019-04-01T15:51:05.421Z,101964.24
2019-04-01T15:53:36.054Z,101955.17
2019-04-01T15:56:07.725Z,101952.96
2019-04-01T15:58:38.239Z,101945.81
2019-04-01T16:01:08.797Z,101948.78
2019-04-01T16:03:39.404Z,101948.45
2019-04-01T16:06:09.937Z,101956.11
2019-04-01T16:08:40.460Z,101947.48
2019-04-01T16:11:10.997Z,101944.68
2019-04-01T16:13:42.329Z,101945.52
2019-04-01T16:16:14.673Z,101943.55
2019-04-01T16:18:45.453Z,101944.59
2019-04-01T16:21:15.989Z,101941.65
2019-04-01T16:23:47.311Z,101943.30
2019-04-01T16:26:18.031Z,101948.95
2019-04-01T16:28:48.604Z,101934.19
2019-04-01T16:31:19.137Z,101934.48
2019-04-01T16:33:49.672Z,101931.34
2019-04-01T16:36:21.317Z,101931.44
2019-04-01T16:38:51.959Z,101934.26
2019-04-01T16:47:46.945Z,101929.19
2019-04-01T16:50:17.978Z,101933.92
2019-04-01T16:52:48.649Z,101929.70
2019-04-01T16:55:19.213Z,101930.66
2019-04-01T16:57:49.693Z,101933.80
2019-04-01T17:00:21.303Z,101934.48
2019-04-01T17:02:51.932Z,101927.98
2019-04-01T17:05:25.748Z,101934.66
2019-04-01T17:07:56.372Z,101936.59
2019-04-01T17:10:26.871Z,101934.64
2019-04-01T17:13:01.468Z,101939.34
2019-04-01T17:15:31.220Z,101939.13
2019-04-01T17:18:01.878Z,101938.23
2019-04-01T17:20:32.476Z,101939.67
2019-04-01T17:23:03.006Z,101936.09
2019-04-01T17:25:33.989Z,101936.73
2019-04-01T17:28:04.613Z,101936.23
2019-04-01T17:30:35.145Z,101940.53
2019-04-01T17:33:08.389Z,101942.43
2019-04-01T17:35:37.956Z,101939.97
2019-04-01T17:38:08.485Z,101940.80
2019-04-01T17:40:39.120Z,101943.91
2019-04-01T17:43:09.814Z,101944.70
2019-04-01T17:45:41.309Z,101942.72
2019-04-01T17:48:12.291Z,101944.09
2019-04-01T17:50:42.778Z,101946.16
2019-04-01T17:53:13.350Z,101944.22
2019-04-01T17:55:45.758Z,101950.31
2019-04-01T17:58:16.505Z,101950.34
2019-04-01T18:00:48.706Z,101952.67
2019-04-01T18:03:19.423Z,101959.91
2019-04-01T18:05:50.188Z,101957.00
2019-04-01T18:08:20.692Z,101958.80
2019-04-01T18:10:52.047Z,101952.21
2019-04-01T18:13:25.749Z,101957.23
2019-04-01T18:15:57.511Z,101961.56
2019-04-01T18:18:28.654Z,101961.41
2019-04-01T18:21:04.102Z,101967.08
2019-04-01T18:23:34.829Z,101966.61
2019-04-01T18:26:05.497Z,101972.16
2019-04-01T18:28:36.096Z,101969.48
2019-04-01T18:31:06.625Z,101971.94
2019-04-01T18:33:37.163Z,101968.87
2019-04-01T18:36:07.786Z,101971.83
2019-04-01T18:38:40.943Z,101971.17
2019-04-01T18:41:10.595Z,101972.71
2019-04-01T18:43:41.227Z,101974.12
2019-04-01T18:46:11.794Z,101969.64
2019-04-01T18:48:42.395Z,101982.71
2019-04-01T18:51:12.928Z,101983.45
2019-04-01T18:53:43.561Z,101984.55
2019-04-01T18:56:14.088Z,101978.16
2019-04-01T18:58:44.716Z,101979.52
2019-04-01T19:01:16.065Z,101980.92
2019-04-01T19:03:46.907Z,101984.07
2019-04-01T19:06:18.578Z,101987.20
2019-04-01T19:08:49.203Z,101983.55
2019-04-01T19:11:19.833Z,101987.67
